Time;durP1;ratioP1;P1;durP2;ratioP2;P2;SDS_P1;SDS_P2;PMS_P1;PMS_P2;Temp;Humidity;BMP_temperature;BMP_pressure;BME280_temperature;BME280_humidity;BME280_pressure;Samples;Min_cycle;Max_cycle;Signal;HPM_P1;HPM_P2
2022/09/16 00:01:10;;;;;;;0.10;0.10;;;;;;;11.21;100.00;99561.28;5069947;28;20181;-74
2022/09/16 00:03:35;;;;;;;0.30;0.30;;;;;;;11.18;100.00;99552.97;5071056;28;20179;-75
2022/09/16 00:06:01;;;;;;;0.67;0.63;;;;;;;11.14;100.00;99555.59;5070804;28;20646;-75
2022/09/16 00:08:26;;;;;;;0.47;0.47;;;;;;;11.15;100.00;99553.66;5070912;28;20687;-74
2022/09/16 00:10:51;;;;;;;0.53;0.53;;;;;;;11.12;100.00;99549.63;5071160;28;20181;-75
2022/09/16 00:13:17;;;;;;;2.57;1.30;;;;;;;11.13;100.00;99556.69;5070928;28;20674;-75
2022/09/16 00:15:44;;;;;;;1.57;1.17;;;;;;;11.14;100.00;99563.78;5070603;28;20261;-75
2022/09/16 00:18:10;;;;;;;1.83;1.43;;;;;;;11.15;100.00;99559.13;5053126;28;20540;-75
2022/09/16 00:20:36;;;;;;;1.30;1.30;;;;;;;11.16;100.00;99560.72;5071221;28;20170;-74
2022/09/16 00:23:01;;;;;;;0.63;0.63;;;;;;;11.13;100.00;99559.44;5071419;28;20181;-75
2022/09/16 00:25:27;;;;;;;1.30;1.20;;;;;;;11.13;100.00;99562.16;5071427;28;20181;-75
2022/09/16 00:27:52;;;;;;;1.00;0.90;;;;;;;11.09;100.00;99566.72;5052924;28;20633;-75
2022/09/16 00:30:18;;;;;;;0.77;0.70;;;;;;;11.10;100.00;99567.50;5071634;28;20224;-75
2022/09/16 00:32:43;;;;;;;3.97;1.67;;;;;;;11.07;100.00;99558.06;5053078;28;20421;-75
2022/09/16 00:35:09;;;;;;;0.50;0.50;;;;;;;11.07;100.00;99570.94;5071040;28;20175;-75
2022/09/16 00:37:34;;;;;;;8.03;1.33;;;;;;;11.06;100.00;99555.66;5069394;28;20668;-74
2022/09/16 00:40:00;;;;;;;1.07;0.97;;;;;;;11.03;100.00;99562.59;5070998;28;20618;-75
2022/09/16 00:42:25;;;;;;;0.97;0.97;;;;;;;11.05;100.00;99562.25;5070596;28;20181;-74
2022/09/16 00:45:13;;;;;;;1.63;0.60;;;;;;;11.02;100.00;99566.47;5052798;28;20170;-74
2022/09/16 00:47:47;;;;;;;7.23;1.17;;;;;;;10.98;100.00;99563.59;5070576;28;20186;-74
2022/09/16 00:50:18;;;;;;;0.90;0.90;;;;;;;10.96;100.00;99565.88;5070907;28;20193;-74
2022/09/16 00:52:44;;;;;;;5.20;1.00;;;;;;;10.97;100.00;99570.19;5071122;28;20202;-74
2022/09/16 00:55:14;;;;;;;0.40;0.40;;;;;;;10.98;100.00;99565.53;5057382;28;20225;-74
2022/09/16 00:57:41;;;;;;;0.30;0.23;;;;;;;10.96;100.00;99565.06;5050694;28;20167;-75
2022/09/16 01:00:10;;;;;;;3.80;1.00;;;;;;;10.93;100.00;99563.81;5049475;28;20263;-75
2022/09/16 01:02:35;;;;;;;2.47;0.73;;;;;;;10.91;100.00;99555.16;5050727;28;20547;-75
2022/09/16 01:05:10;;;;;;;0.70;0.70;;;;;;;10.88;100.00;99563.22;5050532;28;20179;-75
2022/09/16 01:07:43;;;;;;;1.47;0.90;;;;;;;10.89;100.00;99559.34;5050290;28;20162;-74
2022/09/16 01:10:08;;;;;;;4.80;1.37;;;;;;;10.90;100.00;99552.75;5050745;28;20270;-75
2022/09/16 01:12:35;;;;;;;2.00;1.17;;;;;;;10.89;100.00;99556.63;5050465;28;20684;-75
2022/09/16 01:15:02;;;;;;;1.80;0.63;;;;;;;10.86;100.00;99569.03;5050883;28;20175;-75
2022/09/16 01:17:36;;;;;;;0.50;0.50;;;;;;;10.89;100.00;99559.34;5050315;28;20167;-74
2022/09/16 01:20:07;;;;;;;0.30;0.30;;;;;;;10.87;100.00;99567.91;5050546;28;20163;-74
2022/09/16 01:22:53;;;;;;;0.63;0.60;;;;;;;10.85;100.00;99558.41;5050626;28;20167;-74
2022/09/16 01:25:21;;;;;;;0.23;0.13;;;;;;;10.82;100.00;99564.53;5050514;28;20610;-75
2022/09/16 01:28:13;;;;;;;3.00;0.57;;;;;;;10.79;100.00;99554.28;5050310;28;20263;-74
2022/09/16 01:30:50;;;;;;;0.10;0.10;;;;;;;10.79;100.00;99557.81;5050504;28;20183;-74
2022/09/16 01:33:30;;;;;;;9.70;1.20;;;;;;;10.79;100.00;99563.28;5050376;28;20826;-74
2022/09/16 01:36:23;;;;;;;0.60;0.60;;;;;;;10.80;100.00;99558.63;5050120;28;20175;-74
2022/09/16 01:38:55;;;;;;;2.30;0.53;;;;;;;10.78;100.00;99556.22;5032594;28;20229;-74
2022/09/16 01:41:41;;;;;;;0.80;0.57;;;;;;;10.80;100.00;99553.16;5050436;28;20698;-75
2022/09/16 01:44:15;;;;;;;0.87;0.70;;;;;;;10.85;100.00;99556.50;5032289;28;20190;-75
2022/09/16 01:46:45;;;;;;;7.80;1.17;;;;;;;10.90;100.00;99553.56;5050286;28;20187;-74
2022/09/16 01:49:33;;;;;;;0.10;0.10;;;;;;;10.95;100.00;99563.47;5050309;28;20529;-74
2022/09/16 01:52:13;;;;;;;3.80;1.60;;;;;;;10.97;100.00;99561.19;5050295;28;20174;-74
2022/09/16 01:54:41;;;;;;;0.37;0.27;;;;;;;10.97;100.00;99564.72;5053321;28;20617;-75
2022/09/16 01:57:15;;;;;;;0.20;0.20;;;;;;;10.99;100.00;99565.22;5035579;28;20179;-75
2022/09/16 02:00:00;;;;;;;0.80;0.73;;;;;;;11.00;100.00;99569.56;5054121;28;20189;-75
2022/09/16 02:02:38;;;;;;;0.93;0.40;;;;;;;11.01;100.00;99568.41;5036096;28;20496;-74
2022/09/16 02:05:11;;;;;;;0.20;0.20;;;;;;;11.02;100.00;99572.75;5053853;28;20317;-74
2022/09/16 02:07:40;;;;;;;0.97;0.50;;;;;;;11.03;100.00;99566.13;5053795;28;20217;-75
2022/09/16 02:10:13;;;;;;;1.97;0.43;;;;;;;11.03;100.00;99557.94;5053801;28;20183;-74
2022/09/16 02:12:42;;;;;;;0.00;0.00;;;;;;;11.04;100.00;99564.19;5053752;28;20677;-75
2022/09/16 02:15:12;;;;;;;0.70;0.63;;;;;;;11.07;100.00;99562.72;5035811;28;20185;-75
2022/09/16 02:17:43;;;;;;;4.43;0.40;;;;;;;11.07;100.00;99551.78;5053402;28;20286;-75
2022/09/16 02:20:13;;;;;;;2.83;0.63;;;;;;;11.05;100.00;99557.59;5053561;28;20163;-74
2022/09/16 02:22:53;;;;;;;1.30;0.70;;;;;;;11.02;100.00;99561.81;5035589;28;20605;-74
2022/09/16 02:25:21;;;;;;;0.00;0.00;;;;;;;10.99;100.00;99562.50;5053562;28;20237;-74
2022/09/16 02:27:48;;;;;;;0.00;0.00;;;;;;;10.96;100.00;99552.19;5053410;28;20274;-75
2022/09/16 02:30:19;;;;;;;0.20;0.20;;;;;;;10.97;100.00;99558.47;5053453;28;20179;-75
2022/09/16 02:32:54;;;;;;;2.10;0.93;;;;;;;10.98;100.00;99557.31;5053169;28;20210;-75
2022/09/16 02:35:21;;;;;;;1.33;0.67;;;;;;;11.02;100.00;99552.81;5053251;28;20614;-75
2022/09/16 02:37:54;;;;;;;1.60;1.10;;;;;;;11.01;100.00;99551.22;5052961;28;20778;-74
2022/09/16 02:40:25;;;;;;;1.07;0.83;;;;;;;11.01;100.00;99543.00;5053451;28;20214;-75
2022/09/16 02:42:51;;;;;;;1.87;1.07;;;;;;;10.99;100.00;99537.88;5053181;28;20167;-75
2022/09/16 02:45:16;;;;;;;1.20;0.73;;;;;;;10.98;100.00;99535.47;5050851;28;20180;-75
2022/09/16 02:48:00;;;;;;;0.70;0.70;;;;;;;10.97;100.00;99542.88;5034446;28;20188;-76
2022/09/16 02:50:34;;;;;;;1.03;1.03;;;;;;;10.95;100.00;99544.34;5054382;28;20190;-76
2022/09/16 02:53:07;;;;;;;1.50;1.40;;;;;;;10.91;100.00;99554.34;5053409;28;20194;-76
2022/09/16 02:56:10;;;;;;;1.17;1.17;;;;;;;10.89;100.00;99546.50;5053008;28;20175;-76
2022/09/16 02:58:36;;;;;;;1.10;1.03;;;;;;;10.87;100.00;99542.50;5028701;28;20278;-75
2022/09/16 03:01:02;;;;;;;0.30;0.30;;;;;;;10.88;100.00;99541.38;5053398;28;20258;-75
2022/09/16 03:03:27;;;;;;;10.37;1.20;;;;;;;10.90;100.00;99547.28;5052960;28;20174;-75
2022/09/16 03:06:05;;;;;;;0.33;0.33;;;;;;;10.87;100.00;99550.69;5051036;28;20175;-76
2022/09/16 03:08:32;;;;;;;3.60;0.80;;;;;;;10.84;100.00;99543.16;5052468;28;20170;-76
2022/09/16 03:11:05;;;;;;;0.60;0.40;;;;;;;10.81;100.00;99543.81;5052637;28;20622;-76
2022/09/16 03:14:02;;;;;;;2.50;0.80;;;;;;;10.83;100.00;99545.09;5053023;28;20222;-75
2022/09/16 03:16:40;;;;;;;5.50;0.63;;;;;;;10.84;100.00;99538.47;5052361;28;20179;-76
2022/09/16 03:19:18;;;;;;;0.60;0.60;;;;;;;10.85;100.00;99542.00;5052638;28;20175;-75
2022/09/16 03:22:05;;;;;;;0.40;0.40;;;;;;;10.86;100.00;99544.44;5052523;28;20167;-75
2022/09/16 03:24:37;;;;;;;0.20;0.20;;;;;;;10.87;100.00;99545.22;5052482;28;20174;-76
2022/09/16 03:27:09;;;;;;;2.37;0.73;;;;;;;10.90;100.00;99544.56;5052288;28;20164;-76
2022/09/16 03:29:45;;;;;;;0.40;0.30;;;;;;;10.92;100.00;99553.22;5051387;28;20172;-76
2022/09/16 03:32:16;;;;;;;0.20;0.20;;;;;;;10.93;100.00;99550.16;5052254;28;20787;-75
2022/09/16 03:34:48;;;;;;;0.50;0.33;;;;;;;10.95;100.00;99542.41;5050925;28;20210;-75
2022/09/16 03:37:18;;;;;;;0.33;0.33;;;;;;;11.00;100.00;99552.34;5052062;28;20231;-76
2022/09/16 03:39:49;;;;;;;0.10;0.10;;;;;;;11.01;100.00;99537.53;5052176;28;20186;-76
2022/09/16 03:42:16;;;;;;;0.33;0.33;;;;;;;11.03;100.00;99535.28;5052159;28;20237;-75
2022/09/16 03:44:41;;;;;;;0.20;0.20;;;;;;;11.06;100.00;99540.06;5052004;28;20258;-75
2022/09/16 03:47:07;;;;;;;0.40;0.40;;;;;;;11.09;100.00;99547.59;5050297;28;20349;-75
2022/09/16 03:49:33;;;;;;;4.13;0.83;;;;;;;11.11;100.00;99545.31;5051903;28;20696;-75
2022/09/16 03:52:00;;;;;;;0.27;0.27;;;;;;;11.13;100.00;99536.75;5050438;28;20177;-76
2022/09/16 03:54:26;;;;;;;7.10;0.50;;;;;;;11.14;100.00;99536.44;5052170;28;20489;-75
2022/09/16 03:56:51;;;;;;;0.90;0.90;;;;;;;11.14;100.00;99528.25;5051806;28;20175;-75
2022/09/16 03:59:16;;;;;;;0.23;0.20;;;;;;;11.15;100.00;99527.13;5050667;28;20179;-76
2022/09/16 04:01:42;;;;;;;0.30;0.30;;;;;;;11.13;100.00;99532.09;5052045;28;20175;-75
2022/09/16 04:04:08;;;;;;;42.53;1.73;;;;;;;11.12;100.00;99533.22;5051666;28;20179;-75
2022/09/16 04:06:34;;;;;;;0.30;0.30;;;;;;;11.13;100.00;99528.56;5051494;28;20171;-76
2022/09/16 04:09:02;;;;;;;2.53;1.60;;;;;;;11.11;100.00;99528.09;5051134;28;20627;-75
2022/09/16 04:11:28;;;;;;;0.20;0.20;;;;;;;11.12;100.00;99529.69;5051527;28;20207;-75
2022/09/16 04:13:54;;;;;;;1.03;0.40;;;;;;;11.11;100.00;99530.84;5051374;28;20253;-75
2022/09/16 04:16:20;;;;;;;4.43;0.80;;;;;;;11.11;100.00;99528.09;5050590;28;20179;-75
2022/09/16 04:18:46;;;;;;;1.70;0.80;;;;;;;11.11;100.00;99520.69;5066787;28;20183;-75
2022/09/16 04:21:11;;;;;;;0.30;0.30;;;;;;;11.12;100.00;99526.97;5050123;28;20182;-76
2022/09/16 04:23:36;;;;;;;0.97;0.70;;;;;;;11.13;100.00;99523.09;5051166;28;20654;-75
2022/09/16 04:26:02;;;;;;;0.20;0.20;;;;;;;11.13;100.00;99529.34;5051079;28;20626;-76
2022/09/16 04:28:29;;;;;;;0.20;0.20;;;;;;;11.13;100.00;99526.63;5051090;28;20198;-76
2022/09/16 04:30:58;;;;;;;0.97;0.97;;;;;;;11.14;100.00;99533.72;5051131;28;20182;-76
2022/09/16 04:33:27;;;;;;;0.60;0.60;;;;;;;11.16;100.00;99531.44;5050896;28;20210;-76
2022/09/16 04:35:52;;;;;;;10.10;0.93;;;;;;;11.14;100.00;99525.53;5050792;28;20171;-75
2022/09/16 04:38:17;;;;;;;0.43;0.43;;;;;;;11.15;100.00;99520.84;5051151;28;20657;-75
2022/09/16 04:40:43;;;;;;;0.60;0.60;;;;;;;11.15;100.00;99521.66;5051006;28;20519;-75
2022/09/16 04:43:08;;;;;;;0.50;0.50;;;;;;;11.12;100.00;99514.09;5051090;28;20175;-75
2022/09/16 04:45:33;;;;;;;1.13;0.27;;;;;;;11.12;100.00;99514.09;5049687;28;20211;-75
2022/09/16 04:47:59;;;;;;;0.57;0.57;;;;;;;11.11;100.00;99515.25;5050838;28;20476;-75
2022/09/16 04:50:25;;;;;;;0.50;0.50;;;;;;;11.12;100.00;99527.75;5051384;28;20215;-76
2022/09/16 04:52:50;;;;;;;1.10;1.03;;;;;;;11.12;100.00;99514.09;5050172;28;20198;-75
2022/09/16 04:55:17;;;;;;;0.80;0.80;;;;;;;11.12;100.00;99519.56;5051440;28;20175;-75
2022/09/16 04:57:42;;;;;;;0.83;0.83;;;;;;;11.07;100.00;99514.31;5052460;28;20175;-75
2022/09/16 05:00:08;;;;;;;2.53;0.90;;;;;;;11.07;100.00;99519.78;5051718;28;20240;-75
2022/09/16 05:02:34;;;;;;;4.17;0.50;;;;;;;11.06;100.00;99522.84;5056147;28;20538;-75
2022/09/16 05:04:59;;;;;;;0.10;0.10;;;;;;;11.05;100.00;99519.34;5051442;28;20178;-75
2022/09/16 05:07:24;;;;;;;0.40;0.40;;;;;;;11.06;100.00;99517.41;5049457;28;20693;-75
2022/09/16 05:09:49;;;;;;;1.00;0.90;;;;;;;11.03;100.00;99521.59;5049563;28;20317;-75
2022/09/16 05:12:15;;;;;;;0.20;0.20;;;;;;;11.03;100.00;99527.88;5050708;28;22628;-75
2022/09/16 05:14:40;;;;;;;0.57;0.37;;;;;;;11.06;100.00;99523.66;5050966;28;20213;-75
2022/09/16 05:17:06;;;;;;;0.30;0.30;;;;;;;11.05;100.00;99526.72;5050637;28;20853;-75
2022/09/16 05:19:31;;;;;;;0.83;0.83;;;;;;;11.06;100.00;99528.31;5050592;28;20199;-75
2022/09/16 05:21:57;;;;;;;0.00;0.00;;;;;;;11.06;100.00;99533.78;5049280;28;20175;-75
2022/09/16 05:24:22;;;;;;;2.30;1.30;;;;;;;11.05;100.00;99527.53;5049187;28;20274;-75
2022/09/16 05:26:47;;;;;;;3.40;0.40;;;;;;;11.05;100.00;99527.53;5050590;28;20167;-76
2022/09/16 05:29:15;;;;;;;4.23;0.60;;;;;;;11.05;100.00;99524.00;5054550;28;20167;-75
2022/09/16 05:31:41;;;;;;;0.20;0.20;;;;;;;11.05;100.00;99526.72;5054546;28;20174;-75
2022/09/16 05:34:12;;;;;;;0.20;0.20;;;;;;;11.07;100.00;99536.19;5054306;28;20706;-75
2022/09/16 05:36:38;;;;;;;0.23;0.23;;;;;;;11.09;100.00;99533.91;5054662;28;20214;-75
2022/09/16 05:39:05;;;;;;;0.10;0.10;;;;;;;11.09;100.00;99533.91;5054579;28;20178;-76
2022/09/16 05:41:30;;;;;;;0.43;0.43;;;;;;;11.08;100.00;99535.06;5054233;28;20516;-75
2022/09/16 05:44:00;;;;;;;0.40;0.40;;;;;;;11.07;100.00;99536.19;5069521;28;20183;-76
2022/09/16 05:46:27;;;;;;;10.60;1.70;;;;;;;11.09;100.00;99533.91;5053724;28;20273;-76
2022/09/16 05:48:53;;;;;;;0.17;0.17;;;;;;;11.07;100.00;99536.19;5052898;28;20634;-74
2022/09/16 05:51:21;;;;;;;1.37;1.23;;;;;;;11.08;100.00;99529.59;5053972;28;20708;-77
2022/09/16 05:53:48;;;;;;;1.13;0.97;;;;;;;11.11;100.00;99537.09;5052660;28;20198;-76
2022/09/16 05:56:25;;;;;;;1.17;1.07;;;;;;;11.13;100.00;99534.81;5052561;28;20262;-76
2022/09/16 05:58:52;;;;;;;0.57;0.57;;;;;;;11.15;100.00;99534.53;5052733;28;20185;-76
2022/09/16 06:01:20;;;;;;;0.57;0.57;;;;;;;11.18;100.00;99537.38;5053796;28;20645;-76
2022/09/16 06:03:48;;;;;;;1.13;1.13;;;;;;;11.22;100.00;99543.75;5053981;28;20289;-77
2022/09/16 06:06:26;;;;;;;1.00;1.00;;;;;;;11.27;100.00;99550.94;5052126;28;20183;-76
2022/09/16 06:08:55;;;;;;;0.10;0.10;;;;;;;11.30;100.00;99542.06;5053497;28;20661;-76
2022/09/16 06:11:21;;;;;;;0.53;0.53;;;;;;;11.29;100.00;99540.47;5053544;28;20168;-76
2022/09/16 06:13:54;;;;;;;9.20;0.87;;;;;;;11.31;100.00;99544.47;5053702;28;20627;-76
2022/09/16 06:16:20;;;;;;;10.17;1.07;;;;;;;11.31;100.00;99541.72;5053397;28;20160;-76
2022/09/16 06:18:45;;;;;;;0.30;0.30;;;;;;;11.34;100.00;99545.72;5053575;28;20178;-77
2022/09/16 06:21:12;;;;;;;4.90;0.87;;;;;;;11.36;100.00;99539.91;5052162;28;20176;-76
2022/09/16 06:23:38;;;;;;;0.30;0.30;;;;;;;11.36;100.00;99532.50;5053397;28;20266;-76
2022/09/16 06:26:07;;;;;;;0.73;0.57;;;;;;;11.34;100.00;99545.72;5051764;28;20237;-76
2022/09/16 06:28:32;;;;;;;0.50;0.50;;;;;;;11.35;100.00;99541.84;5053414;28;20182;-76
2022/09/16 06:31:06;;;;;;;12.60;1.43;;;;;;;11.41;100.00;99545.94;5053436;28;20179;-76
2022/09/16 06:33:35;;;;;;;0.07;0.00;;;;;;;11.49;100.00;99547.00;5051895;28;20206;-77
2022/09/16 06:36:03;;;;;;;0.40;0.20;;;;;;;11.52;100.00;99547.13;5053119;28;20205;-76
2022/09/16 06:38:28;;;;;;;0.63;0.53;;;;;;;11.55;100.00;99548.38;5051351;28;20692;-76
2022/09/16 06:40:57;;;;;;;1.47;1.20;;;;;;;11.55;100.00;99540.16;5052878;28;20183;-76
2022/09/16 06:43:22;;;;;;;0.90;0.90;;;;;;;11.53;100.00;99531.50;5052945;28;20175;-76
2022/09/16 06:45:48;;;;;;;3.73;0.93;;;;;;;11.52;100.00;99527.97;5052638;28;20535;-76
2022/09/16 06:48:13;;;;;;;0.47;0.47;;;;;;;11.55;100.00;99529.22;5052934;28;20245;-76
2022/09/16 06:50:38;;;;;;;8.57;0.90;;;;;;;11.63;100.00;99526.41;5052994;28;20604;-77
2022/09/16 06:53:04;;;;;;;0.20;0.20;;;;;;;11.71;98.97;99526.63;5052373;28;20207;-75
2022/09/16 06:55:29;;;;;;;0.13;0.10;;;;;;;11.88;98.32;99537.41;5052790;28;20171;-75
2022/09/16 06:57:55;;;;;;;0.50;0.50;;;;;;;12.05;97.46;99542.63;5068000;28;20258;-76
2022/09/16 07:00:20;;;;;;;5.67;0.90;;;;;;;12.15;96.13;99546.81;5052973;28;20180;-75
2022/09/16 07:02:46;;;;;;;1.03;0.90;;;;;;;12.27;94.86;99537.81;5052645;28;20179;-75
2022/09/16 07:05:11;;;;;;;3.00;0.93;;;;;;;12.30;93.20;99537.13;5050952;28;20171;-75
2022/09/16 07:07:38;;;;;;;0.43;0.40;;;;;;;12.37;92.76;99537.34;5052057;28;20627;-75
2022/09/16 07:10:05;;;;;;;0.40;0.37;;;;;;;12.38;92.14;99534.25;5052545;28;20701;-75
2022/09/16 07:12:30;;;;;;;0.10;0.10;;;;;;;12.40;91.90;99534.69;5052177;28;20198;-75
2022/09/16 07:14:55;;;;;;;1.37;0.43;;;;;;;12.41;91.79;99539.03;5052462;28;20175;-75
2022/09/16 07:17:24;;;;;;;0.23;0.23;;;;;;;12.47;92.31;99529.44;5052460;28;20578;-76
2022/09/16 07:19:50;;;;;;;0.70;0.70;;;;;;;12.49;90.87;99534.56;5051148;28;20254;-75
2022/09/16 07:22:15;;;;;;;0.17;0.17;;;;;;;12.44;91.55;99538.38;5051479;28;20642;-76
2022/09/16 07:24:40;;;;;;;0.73;0.30;;;;;;;12.39;91.64;99546.00;5061485;28;20179;-75
2022/09/16 07:27:06;;;;;;;4.90;0.77;;;;;;;12.41;92.27;99541.78;5038121;28;20186;-75
2022/09/16 07:29:31;;;;;;;0.40;0.40;;;;;;;12.33;90.65;99542.72;5052238;28;20559;-75
2022/09/16 07:31:56;;;;;;;0.87;0.53;;;;;;;12.40;90.16;99545.66;5052263;28;20262;-76
2022/09/16 07:34:22;;;;;;;0.40;0.40;;;;;;;12.62;90.44;99546.31;5053360;28;20234;-75
2022/09/16 07:36:48;;;;;;;13.87;0.73;;;;;;;12.66;89.71;99550.72;5052126;28;20258;-74
2022/09/16 07:39:16;;;;;;;2.97;0.57;;;;;;;12.67;90.14;99546.84;5052018;28;20640;-74
2022/09/16 07:41:44;;;;;;;0.50;0.50;;;;;;;12.54;88.58;99542.53;5051717;28;20178;-74
2022/09/16 07:44:15;;;;;;;1.00;0.43;;;;;;;12.49;88.35;99542.78;5051129;28;20254;-73
2022/09/16 07:46:41;;;;;;;0.87;0.80;;;;;;;12.57;89.53;99543.78;5031624;28;20218;-74
2022/09/16 07:49:09;;;;;;;2.97;0.57;;;;;;;12.56;88.86;99550.41;5032119;28;20254;-74
2022/09/16 07:51:35;;;;;;;1.80;1.03;;;;;;;12.63;89.30;99551.44;5064396;28;20190;-74
2022/09/16 07:54:03;;;;;;;0.83;0.57;;;;;;;12.62;88.41;99558.06;5071575;28;20219;-74
2022/09/16 07:56:33;;;;;;;0.43;0.43;;;;;;;12.72;89.07;99557.56;5071531;28;20182;-77
2022/09/16 07:58:58;;;;;;;4.20;0.90;;;;;;;12.67;87.55;99562.50;5071799;28;20176;-76
2022/09/16 08:01:24;;;;;;;0.70;0.60;;;;;;;12.68;87.53;99553.91;5071646;28;20170;-77
2022/09/16 08:03:49;;;;;;;2.50;0.60;;;;;;;12.68;85.99;99545.69;5053701;28;20209;-77
2022/09/16 08:06:18;;;;;;;0.67;0.67;;;;;;;12.79;85.18;99552.28;5070964;28;20197;-77
2022/09/16 08:08:44;;;;;;;0.63;0.63;;;;;;;12.78;85.62;99552.66;5070139;28;20576;-76
2022/09/16 08:11:11;;;;;;;1.50;0.27;;;;;;;12.87;85.66;99558.75;5071497;28;20403;-76
2022/09/16 08:13:37;;;;;;;0.90;0.83;;;;;;;12.96;85.58;99548.47;5071198;28;20680;-77
2022/09/16 08:16:10;;;;;;;0.53;0.53;;;;;;;13.05;84.20;99562.81;5071389;28;20178;-77
2022/09/16 08:18:36;;;;;;;0.83;0.50;;;;;;;13.03;82.77;99550.63;5069694;28;20285;-77
2022/09/16 08:21:06;;;;;;;2.33;0.83;;;;;;;13.15;83.17;99556.03;5050699;28;20179;-77
2022/09/16 08:23:32;;;;;;;1.70;0.60;;;;;;;13.15;81.83;99545.06;5051083;28;20626;-76
2022/09/16 08:25:59;;;;;;;4.37;0.40;;;;;;;13.22;81.03;99550.78;5062131;28;20185;-76
2022/09/16 08:28:26;;;;;;;0.10;0.10;;;;;;;13.34;80.55;99558.94;5071186;28;20233;-76
2022/09/16 08:30:52;;;;;;;1.50;0.80;;;;;;;13.37;81.05;99538.22;5071025;28;20171;-75
2022/09/16 08:33:20;;;;;;;0.30;0.30;;;;;;;13.36;80.36;99550.34;5071251;28;20202;-75
2022/09/16 08:35:46;;;;;;;1.30;0.43;;;;;;;13.33;79.79;99542.84;5070745;28;20195;-75
2022/09/16 08:38:12;;;;;;;1.23;0.77;;;;;;;13.56;81.00;99551.25;5058934;28;20623;-76
2022/09/16 08:40:43;;;;;;;0.60;0.60;;;;;;;13.61;79.86;99551.00;5050873;28;20175;-76
2022/09/16 08:43:28;;;;;;;0.63;0.47;;;;;;;13.77;79.69;99543.56;5050296;28;20179;-76
2022/09/16 08:46:02;;;;;;;3.70;1.00;;;;;;;13.83;79.04;99549.59;5049242;28;20167;-76
2022/09/16 08:48:30;;;;;;;4.17;1.03;;;;;;;13.80;78.22;99548.34;5050946;28;20305;-76
2022/09/16 08:50:59;;;;;;;5.20;0.47;;;;;;;13.77;76.75;99551.00;5049446;28;20211;-76
2022/09/16 08:54:00;;;;;;;24.67;0.50;;;;;;;13.89;76.37;99553.66;5050570;28;20213;-76
2022/09/16 08:56:28;;;;;;;6.03;0.57;;;;;;;13.89;75.06;99553.66;5049133;28;20570;-76
2022/09/16 08:58:57;;;;;;;0.90;0.57;;;;;;;13.91;74.55;99551.38;5050661;28;20179;-76
2022/09/16 09:01:33;;;;;;;0.37;0.37;;;;;;;14.05;74.02;99548.16;5050654;28;20224;-76
2022/09/16 09:03:59;;;;;;;0.43;0.40;;;;;;;14.27;74.50;99551.03;5050250;28;20183;-76
2022/09/16 09:06:44;;;;;;;0.40;0.40;;;;;;;14.34;73.47;99555.09;5050438;28;20266;-76
2022/09/16 09:09:34;;;;;;;3.50;1.00;;;;;;;14.32;72.27;99552.72;5050658;28;20175;-76
2022/09/16 09:12:11;;;;;;;0.30;0.20;;;;;;;14.39;70.98;99552.06;5050786;28;20160;-76
2022/09/16 09:14:54;;;;;;;8.03;1.23;;;;;;;14.54;70.34;99549.31;5050511;28;20681;-76
2022/09/16 09:17:38;;;;;;;2.00;0.77;;;;;;;14.44;70.02;99560.06;5049982;28;20634;-76
2022/09/16 09:20:36;;;;;;;9.67;0.60;;;;;;;14.47;70.17;99562.13;5050128;28;20203;-76
2022/09/16 09:23:26;;;;;;;3.40;0.97;;;;;;;14.36;71.34;99563.78;5031897;28;20619;-75
2022/09/16 09:26:07;;;;;;;0.83;0.40;;;;;;;14.43;70.96;99558.44;5050055;28;20172;-76
2022/09/16 09:29:13;;;;;;;0.10;0.10;;;;;;;14.61;70.28;99559.69;5050129;28;20394;-75
2022/09/16 09:31:50;;;;;;;0.27;0.20;;;;;;;14.50;69.30;99564.13;5049964;28;20221;-76
2022/09/16 09:34:36;;;;;;;0.00;0.00;;;;;;;14.61;69.07;99558.84;5050131;28;20249;-76
2022/09/16 09:37:20;;;;;;;0.10;0.10;;;;;;;14.80;68.82;99558.88;5049721;28;20206;-76
2022/09/16 09:40:12;;;;;;;1.70;0.20;;;;;;;14.60;68.00;99552.56;5050560;28;20203;-74
2022/09/16 09:43:04;;;;;;;0.53;0.53;;;;;;;14.67;67.67;99544.47;5056328;28;20260;-74
2022/09/16 09:45:37;;;;;;;1.53;0.47;;;;;;;14.77;67.53;99548.63;5032112;28;20321;-75
2022/09/16 09:48:21;;;;;;;1.43;1.07;;;;;;;15.23;67.24;99546.78;5031918;28;20183;-75
2022/09/16 09:50:48;;;;;;;1.40;1.13;;;;;;;15.02;65.97;99551.84;5052379;28;20288;-75
2022/09/16 09:53:32;;;;;;;0.00;0.00;;;;;;;14.81;64.83;99533.78;5044563;28;20219;-75
2022/09/16 09:56:14;;;;;;;0.00;0.00;;;;;;;14.93;66.26;99543.03;5032160;28;20586;-76
2022/09/16 09:59:03;;;;;;;0.50;0.40;;;;;;;14.98;64.70;99538.03;5049938;28;20179;-75
2022/09/16 10:01:29;;;;;;;2.40;0.83;;;;;;;15.14;62.84;99533.22;5031910;28;20179;-75
2022/09/16 10:03:56;;;;;;;1.17;0.97;;;;;;;15.01;63.00;99529.03;5031860;28;20179;-74
2022/09/16 10:06:27;;;;;;;0.47;0.40;;;;;;;14.93;63.62;99543.03;5049411;28;20534;-74
2022/09/16 10:08:55;;;;;;;1.70;0.40;;;;;;;14.90;64.03;99533.56;5049936;28;20207;-76
2022/09/16 10:11:23;;;;;;;0.13;0.13;;;;;;;14.78;64.74;99534.50;5050010;28;20425;-76
2022/09/16 10:13:55;;;;;;;0.30;0.20;;;;;;;14.53;65.91;99533.19;5031958;28;20612;-75
2022/09/16 10:16:25;;;;;;;0.20;0.20;;;;;;;14.41;68.16;99525.03;5053044;28;20292;-75
2022/09/16 10:19:05;;;;;;;14.13;0.80;;;;;;;14.52;68.10;99524.13;5053127;28;20699;-75
2022/09/16 10:21:44;;;;;;;0.10;0.00;;;;;;;14.55;67.59;99528.91;5053302;28;20179;-75
2022/09/16 10:24:24;;;;;;;6.27;0.23;;;;;;;14.54;65.66;99521.81;5052025;28;20187;-75
2022/09/16 10:26:49;;;;;;;1.73;0.57;;;;;;;14.59;65.52;99534.47;5046618;28;20183;-76
2022/09/16 10:29:18;;;;;;;0.27;0.10;;;;;;;14.70;65.01;99526.47;5053363;28;20206;-75
2022/09/16 10:31:44;;;;;;;17.17;0.90;;;;;;;14.94;65.63;99517.91;5071390;28;20666;-76
2022/09/16 10:34:32;;;;;;;0.37;0.27;;;;;;;15.20;63.89;99520.00;5073430;28;20287;-75
2022/09/16 10:37:04;;;;;;;0.60;0.10;;;;;;;15.29;62.86;99522.50;5073040;28;20189;-75
2022/09/16 10:39:31;;;;;;;1.60;0.73;;;;;;;15.39;62.14;99525.44;5073152;28;20201;-75
2022/09/16 10:41:57;;;;;;;0.00;0.00;;;;;;;15.66;62.58;99511.78;5072997;28;20179;-75
2022/09/16 10:44:30;;;;;;;0.53;0.53;;;;;;;15.45;62.39;99506.66;5073017;28;20178;-74
2022/09/16 10:46:59;;;;;;;12.50;1.70;;;;;;;15.13;63.72;99506.09;5072775;28;20182;-76
2022/09/16 10:49:33;;;;;;;0.97;0.67;;;;;;;15.33;64.24;99515.09;5066876;28;20179;-75
2022/09/16 10:52:21;;;;;;;1.07;0.40;;;;;;;15.53;62.17;99502.09;5055775;28;20232;-73
2022/09/16 10:54:47;;;;;;;4.70;0.43;;;;;;;15.25;61.92;99505.13;5053001;28;20179;-74
2022/09/16 10:57:23;;;;;;;0.60;0.60;;;;;;;15.07;62.24;99513.06;5052717;28;20186;-76
2022/09/16 11:00:23;;;;;;;2.83;0.50;;;;;;;14.95;62.20;99510.47;5052741;28;20183;-74
2022/09/16 11:03:16;;;;;;;0.00;0.00;;;;;;;15.22;64.25;99501.16;5030059;28;20195;-83
2022/09/16 11:06:19;;;;;;;0.93;0.30;;;;;;;15.53;59.49;99507.59;5050780;28;20184;-74
2022/09/16 11:09:02;;;;;;;0.10;0.10;;;;;;;15.27;56.58;99517.34;5051149;28;20277;-73
2022/09/16 11:11:46;;;;;;;0.73;0.60;;;;;;;15.30;57.18;99521.34;5052323;28;20195;-74
2022/09/16 11:14:32;;;;;;;0.10;0.00;;;;;;;15.24;57.90;99511.78;5052352;28;20205;-74
2022/09/16 11:17:21;;;;;;;0.70;0.23;;;;;;;15.44;56.51;99502.31;5051876;28;20179;-74
2022/09/16 11:20:11;;;;;;;0.30;0.30;;;;;;;15.56;55.07;99496.63;5055702;28;20196;-74
2022/09/16 11:22:50;;;;;;;3.00;0.30;;;;;;;15.52;55.18;99492.25;5031522;28;20551;-74
2022/09/16 11:25:33;;;;;;;0.20;0.20;;;;;;;15.66;55.49;99489.75;5032303;28;20179;-74
2022/09/16 11:28:20;;;;;;;1.17;0.43;;;;;;;15.58;55.69;99493.50;5032101;28;20511;-74
2022/09/16 11:31:15;;;;;;;5.23;0.20;;;;;;;15.60;55.94;99480.97;5032148;28;20266;-74
2022/09/16 11:34:03;;;;;;;11.43;0.57;;;;;;;15.73;57.32;99489.84;5023962;28;20749;-74
2022/09/16 11:36:42;;;;;;;1.20;0.20;;;;;;;15.77;54.55;99485.22;5031791;28;20266;-74
2022/09/16 11:39:10;;;;;;;1.13;0.33;;;;;;;16.12;55.38;99471.16;5032257;28;20238;-74
2022/09/16 11:41:54;;;;;;;0.70;0.40;;;;;;;16.52;55.41;99480.75;5030355;28;20184;-74
2022/09/16 11:44:28;;;;;;;0.73;0.63;;;;;;;16.59;53.90;99476.09;5030643;28;20179;-74
2022/09/16 11:47:32;;;;;;;1.40;0.30;;;;;;;16.37;54.76;99479.78;5030167;28;20187;-74
2022/09/16 11:50:30;;;;;;;3.97;0.50;;;;;;;16.10;55.29;99476.25;5031866;28;20176;-74